createdAt,value
2018-12-17T00:02:07.739Z,2.10
2018-12-17T00:04:35.780Z,2.10
2018-12-17T00:07:03.871Z,2.10
2018-12-17T00:09:31.377Z,2.10
2018-12-17T00:11:58.853Z,2.10
2018-12-17T00:14:26.300Z,2.10
2018-12-17T00:16:53.961Z,2.10
2018-12-17T00:19:21.423Z,2.10
2018-12-17T00:21:49.142Z,2.10
2018-12-17T00:24:16.625Z,2.10
2018-12-17T00:26:44.063Z,2.10
2018-12-17T00:29:12.462Z,2.10
2018-12-17T00:31:39.936Z,2.10
2018-12-17T00:34:07.412Z,2.20
2018-12-17T00:36:34.898Z,2.20
2018-12-17T00:39:02.706Z,2.20
2018-12-17T00:41:30.259Z,2.20
2018-12-17T00:43:57.824Z,2.20
2018-12-17T00:46:25.853Z,2.20
2018-12-17T00:48:53.335Z,2.20
2018-12-17T00:51:21.917Z,2.10
2018-12-17T00:53:49.362Z,2.20
2018-12-17T00:56:17.017Z,2.20
2018-12-17T00:58:44.823Z,2.20
2018-12-17T01:01:12.282Z,2.10
2018-12-17T01:03:39.935Z,2.10
2018-12-17T01:06:07.391Z,2.20
2018-12-17T01:08:34.867Z,2.10
2018-12-17T01:11:02.371Z,2.00
2018-12-17T01:13:29.841Z,2.00
2018-12-17T01:16:01.163Z,2.10
2018-12-17T01:18:33.368Z,2.10
2018-12-17T01:21:00.841Z,2.10
2018-12-17T01:23:28.500Z,2.10
2018-12-17T01:25:56.094Z,2.10
2018-12-17T01:28:24.161Z,2.10
2018-12-17T01:30:51.670Z,2.10
2018-12-17T01:33:19.122Z,2.10
2018-12-17T01:35:46.635Z,1.90
2018-12-17T01:38:14.203Z,1.90
2018-12-17T01:40:41.694Z,1.90
2018-12-17T01:43:09.144Z,1.90
2018-12-17T01:45:36.832Z,2.00
2018-12-17T01:48:04.355Z,2.00
2018-12-17T01:50:32.390Z,2.00
2018-12-17T01:52:59.878Z,2.10
2018-12-17T01:55:27.322Z,2.10
2018-12-17T01:57:54.818Z,2.10
2018-12-17T02:00:22.482Z,2.10
2018-12-17T02:02:49.977Z,2.10
2018-12-17T02:05:17.710Z,2.10
2018-12-17T02:07:46.006Z,2.20
2018-12-17T02:10:13.534Z,2.20
2018-12-17T02:12:40.987Z,2.20
2018-12-17T02:15:08.780Z,2.30
2018-12-17T02:17:36.257Z,2.30
2018-12-17T02:20:04.715Z,2.30
2018-12-17T02:22:32.153Z,2.30
2018-12-17T02:24:59.938Z,2.30
2018-12-17T02:27:27.419Z,2.40
2018-12-17T02:29:54.911Z,2.40
2018-12-17T02:32:22.387Z,2.40
2018-12-17T02:34:49.867Z,2.40
2018-12-17T02:37:17.326Z,2.40
2018-12-17T02:39:44.985Z,2.40
2018-12-17T02:42:13.414Z,2.40
2018-12-17T02:44:40.882Z,2.40
2018-12-17T02:47:08.362Z,2.40
2018-12-17T02:49:38.934Z,2.40
2018-12-17T02:52:06.387Z,2.40
2018-12-17T02:54:34.118Z,2.40
2018-12-17T02:57:01.568Z,2.40
2018-12-17T02:59:29.048Z,2.40
2018-12-17T03:01:57.349Z,2.30
2018-12-17T03:04:24.821Z,2.30
2018-12-17T03:06:52.301Z,2.30
2018-12-17T03:09:19.785Z,2.30
2018-12-17T03:11:47.266Z,2.30
2018-12-17T03:14:14.726Z,2.30
2018-12-17T03:16:42.189Z,2.30
2018-12-17T03:19:09.641Z,2.30
2018-12-17T03:21:37.105Z,2.30
2018-12-17T03:24:05.416Z,2.40
2018-12-17T03:26:32.992Z,2.50
2018-12-17T03:29:00.450Z,2.40
2018-12-17T03:31:28.393Z,2.30
2018-12-17T03:33:55.947Z,2.30
2018-12-17T03:36:28.163Z,2.30
2018-12-17T03:38:55.603Z,2.30
2018-12-17T03:41:23.113Z,2.30
2018-12-17T03:43:50.587Z,2.30
2018-12-17T03:46:18.047Z,2.30
2018-12-17T03:48:45.512Z,2.30
2018-12-17T03:51:13.134Z,2.30
2018-12-17T03:53:40.593Z,2.40
2018-12-17T03:56:08.038Z,2.40
2018-12-17T03:58:35.509Z,2.40
2018-12-17T04:01:03.527Z,2.40
2018-12-17T04:03:31.015Z,2.40
2018-12-17T04:06:01.847Z,2.40
2018-12-17T04:08:29.327Z,2.40
2018-12-17T04:10:57.015Z,2.40
2018-12-17T04:13:24.579Z,2.40
2018-12-17T04:15:52.995Z,2.50
2018-12-17T04:18:20.465Z,2.50
2018-12-17T04:20:48.126Z,2.50
2018-12-17T04:23:15.588Z,2.40
2018-12-17T04:25:43.183Z,2.40
2018-12-17T04:28:10.665Z,2.50
2018-12-17T04:30:38.141Z,2.50
2018-12-17T04:33:06.540Z,2.50
2018-12-17T04:35:34.192Z,2.50
2018-12-17T04:38:01.670Z,2.50
2018-12-17T04:40:29.120Z,2.50
2018-12-17T04:42:56.636Z,2.50
2018-12-17T04:45:24.077Z,2.60
2018-12-17T04:47:51.632Z,2.60
2018-12-17T04:50:19.070Z,2.50
2018-12-17T04:52:49.272Z,2.50
2018-12-17T04:55:16.733Z,2.50
2018-12-17T04:57:44.944Z,2.50
2018-12-17T05:00:12.455Z,2.40
2018-12-17T05:02:39.924Z,2.40
2018-12-17T05:05:07.455Z,2.40
2018-12-17T05:07:38.522Z,2.50
2018-12-17T05:10:06.070Z,2.50
2018-12-17T05:12:34.545Z,2.50
2018-12-17T05:15:03.759Z,2.50
2018-12-17T05:17:31.664Z,2.40
2018-12-17T05:19:59.782Z,2.40
2018-12-17T05:22:31.890Z,2.40
2018-12-17T05:25:00.165Z,2.40
2018-12-17T05:27:27.606Z,2.40
2018-12-17T05:29:55.085Z,2.40
2018-12-17T05:32:22.546Z,2.40
2018-12-17T05:34:50.162Z,2.40
2018-12-17T05:37:21.531Z,2.40
2018-12-17T05:39:49.590Z,2.50
2018-12-17T05:42:17.312Z,2.50
2018-12-17T05:44:44.806Z,2.50
2018-12-17T05:47:12.377Z,2.50
2018-12-17T05:49:39.827Z,2.50
2018-12-17T05:52:07.300Z,2.50
2018-12-17T05:54:34.737Z,2.50
2018-12-17T05:57:02.946Z,2.50
2018-12-17T05:59:30.526Z,2.40
2018-12-17T06:01:58.182Z,2.40
2018-12-17T06:04:25.710Z,2.40
2018-12-17T06:06:53.171Z,2.50
2018-12-17T06:09:20.863Z,2.50
2018-12-17T06:11:48.758Z,2.50
2018-12-17T06:14:16.455Z,2.50
2018-12-17T06:16:44.171Z,2.50
2018-12-17T06:19:11.665Z,2.40
2018-12-17T06:21:39.155Z,2.40
2018-12-17T06:24:06.654Z,2.40
2018-12-17T06:26:34.373Z,2.40
2018-12-17T06:29:01.820Z,2.40
2018-12-17T06:31:29.570Z,2.40
2018-12-17T06:33:57.061Z,2.40
2018-12-17T06:36:24.724Z,2.50
2018-12-17T06:38:52.217Z,2.40
2018-12-17T06:41:19.690Z,2.50
2018-12-17T06:43:47.168Z,2.50
2018-12-17T06:46:14.636Z,2.50
2018-12-17T06:48:42.178Z,2.50
2018-12-17T06:51:09.678Z,2.40
2018-12-17T06:53:38.163Z,2.40
2018-12-17T06:56:05.615Z,2.30
2018-12-17T06:58:33.433Z,2.40
2018-12-17T07:01:00.897Z,2.40
2018-12-17T07:03:28.564Z,2.50
2018-12-17T07:05:56.043Z,2.40
2018-12-17T07:08:23.565Z,2.50
2018-12-17T07:10:51.019Z,2.60
2018-12-17T07:13:18.518Z,2.60
2018-12-17T07:15:46.794Z,2.70
2018-12-17T07:18:14.269Z,2.60
2018-12-17T07:20:41.734Z,2.60
2018-12-17T07:23:09.268Z,2.60
2018-12-17T07:25:36.725Z,2.60
2018-12-17T07:28:04.596Z,2.60
2018-12-17T07:30:32.038Z,2.60
2018-12-17T07:33:00.158Z,2.60
2018-12-17T07:35:27.949Z,2.60
2018-12-17T07:37:55.426Z,2.60
2018-12-17T07:40:22.903Z,2.70
2018-12-17T07:42:50.342Z,2.70
2018-12-17T07:45:18.086Z,2.70
2018-12-17T07:47:45.615Z,2.70
2018-12-17T07:50:14.022Z,2.80
2018-12-17T07:52:41.688Z,2.80
2018-12-17T07:55:09.158Z,2.80
2018-12-17T07:57:36.816Z,2.90
2018-12-17T08:00:07.236Z,3.00
2018-12-17T08:02:34.951Z,3.10
2018-12-17T08:05:02.431Z,3.20
2018-12-17T08:07:30.122Z,3.20
2018-12-17T08:09:58.148Z,3.20
2018-12-17T08:12:25.686Z,3.20
2018-12-17T08:14:53.427Z,3.30
2018-12-17T08:17:20.906Z,3.30
2018-12-17T08:19:48.401Z,3.30
2018-12-17T08:22:15.883Z,3.30
2018-12-17T08:24:43.349Z,3.30
2018-12-17T08:27:11.615Z,3.20
2018-12-17T08:29:39.103Z,3.30
2018-12-17T08:32:06.547Z,3.30
2018-12-17T08:34:34.300Z,3.40
2018-12-17T08:37:01.773Z,3.50
2018-12-17T08:39:29.416Z,3.50
2018-12-17T08:41:57.088Z,3.60
2018-12-17T08:44:25.187Z,3.70
2018-12-17T08:46:52.754Z,3.80
2018-12-17T08:49:20.276Z,3.90
2018-12-17T08:51:47.739Z,4.00
2018-12-17T08:54:15.192Z,4.00
2018-12-17T08:56:42.649Z,4.10
2018-12-17T08:59:10.107Z,4.20
2018-12-17T09:01:37.628Z,4.20
2018-12-17T09:04:05.390Z,4.20
2018-12-17T09:06:33.578Z,4.30
2018-12-17T09:09:01.385Z,4.20
2018-12-17T09:11:28.834Z,4.30
2018-12-17T09:13:56.322Z,4.40
2018-12-17T09:16:23.834Z,4.40
2018-12-17T09:18:52.217Z,4.30
2018-12-17T09:21:19.929Z,4.30
2018-12-17T09:23:47.341Z,4.40
2018-12-17T09:26:18.173Z,4.40
2018-12-17T09:28:45.771Z,4.50
2018-12-17T09:31:13.252Z,4.60
2018-12-17T09:33:40.752Z,4.70
2018-12-17T09:36:08.229Z,4.70
2018-12-17T09:38:36.524Z,4.80
2018-12-17T09:41:04.246Z,4.90
2018-12-17T09:43:31.774Z,5.00
2018-12-17T09:45:59.994Z,5.00
2018-12-17T09:48:27.534Z,4.80
2018-12-17T09:50:55.914Z,4.90
2018-12-17T09:53:23.525Z,5.00
2018-12-17T09:55:51.010Z,5.00
2018-12-17T09:58:18.696Z,5.20
2018-12-17T10:00:46.379Z,5.20
2018-12-17T10:03:13.866Z,5.30
2018-12-17T10:05:41.521Z,5.40
2018-12-17T10:08:09.446Z,5.60
2018-12-17T10:10:37.525Z,5.80
2018-12-17T10:13:05.256Z,6.10
2018-12-17T10:15:32.691Z,6.30
2018-12-17T10:18:00.177Z,6.30
2018-12-17T10:20:27.642Z,6.40
2018-12-17T10:22:55.110Z,6.30
2018-12-17T10:25:23.485Z,6.20
2018-12-17T10:27:50.923Z,6.10
2018-12-17T10:30:18.659Z,6.10
2018-12-17T10:32:46.092Z,6.10
2018-12-17T10:35:13.626Z,6.00
2018-12-17T10:37:41.089Z,5.90
2018-12-17T10:40:09.283Z,5.90
2018-12-17T10:42:37.253Z,5.80
2018-12-17T10:45:06.087Z,5.70
2018-12-17T10:47:33.540Z,5.60
2018-12-17T10:50:01.246Z,5.60
2018-12-17T10:52:28.795Z,5.60
2018-12-17T10:54:56.260Z,5.50
2018-12-17T10:57:23.723Z,5.30
2018-12-17T10:59:51.320Z,5.30
2018-12-17T11:02:21.651Z,5.20
2018-12-17T11:04:51.072Z,5.10
2018-12-17T11:07:18.508Z,5.10
2018-12-17T11:09:46.026Z,5.10
2018-12-17T11:12:13.485Z,5.10
2018-12-17T11:14:41.236Z,5.20
2018-12-17T11:17:08.893Z,5.40
2018-12-17T11:19:36.369Z,5.60
2018-12-17T11:22:03.814Z,5.70
2018-12-17T11:24:31.287Z,5.70
2018-12-17T11:26:59.610Z,5.70
2018-12-17T11:29:27.101Z,5.80
2018-12-17T11:31:54.529Z,5.70
2018-12-17T11:34:22.019Z,5.70
2018-12-17T11:36:49.796Z,5.70
2018-12-17T11:39:17.244Z,5.70
2018-12-17T11:41:44.713Z,5.70
2018-12-17T11:44:12.791Z,5.70
2018-12-17T11:46:40.348Z,5.80
2018-12-17T11:49:07.862Z,6.00
2018-12-17T11:51:35.290Z,6.20
2018-12-17T11:54:02.817Z,6.40
2018-12-17T11:56:38.308Z,6.40
2018-12-17T11:59:09.386Z,6.70
2018-12-17T12:01:36.846Z,6.90
2018-12-17T12:04:04.321Z,6.90
2018-12-17T12:06:31.786Z,7.00
2018-12-17T12:08:59.255Z,7.10
2018-12-17T12:11:26.775Z,7.20
2018-12-17T12:13:57.192Z,7.20
2018-12-17T12:16:24.866Z,7.30
2018-12-17T12:18:52.626Z,7.30
2018-12-17T12:21:20.124Z,7.30
2018-12-17T12:23:47.589Z,7.30
2018-12-17T12:26:15.102Z,7.30
2018-12-17T12:28:42.764Z,7.10
2018-12-17T12:31:10.226Z,7.10
2018-12-17T12:33:37.681Z,6.90
2018-12-17T12:36:05.186Z,6.80
2018-12-17T12:38:32.632Z,6.70
2018-12-17T12:41:01.079Z,6.60
2018-12-17T12:43:28.557Z,6.50
2018-12-17T12:45:56.297Z,6.40
2018-12-17T12:48:24.143Z,6.30
2018-12-17T12:50:51.606Z,6.20
2018-12-17T12:53:19.836Z,6.20
2018-12-17T12:55:47.293Z,6.30
2018-12-17T12:58:14.750Z,6.30
2018-12-17T13:00:42.210Z,6.40
2018-12-17T13:03:09.868Z,6.40
2018-12-17T13:05:37.387Z,6.30
2018-12-17T13:08:04.888Z,6.20
2018-12-17T13:10:32.610Z,6.20
2018-12-17T13:13:00.073Z,6.30
2018-12-17T13:15:28.810Z,6.30
2018-12-17T13:17:56.547Z,6.30
2018-12-17T13:20:24.079Z,6.30
2018-12-17T13:22:51.983Z,6.30
2018-12-17T13:25:21.418Z,6.40
2018-12-17T13:27:48.854Z,6.30
2018-12-17T13:30:17.225Z,6.30
2018-12-17T13:32:44.712Z,6.20
2018-12-17T13:35:12.187Z,6.20
2018-12-17T13:37:39.956Z,6.10
2018-12-17T13:40:08.455Z,6.00
2018-12-17T13:42:35.942Z,6.00
2018-12-17T13:45:04.525Z,6.00
2018-12-17T13:47:31.981Z,6.10
2018-12-17T13:50:01.570Z,6.00
2018-12-17T13:52:34.813Z,6.10
2018-12-17T13:55:02.393Z,6.10
2018-12-17T13:57:29.974Z,6.00
2018-12-17T13:59:57.418Z,6.00
2018-12-17T14:02:24.927Z,6.10
2018-12-17T14:04:52.390Z,6.00
2018-12-17T14:07:20.445Z,6.00
2018-12-17T14:09:53.533Z,5.90
2018-12-17T14:12:21.922Z,5.90
2018-12-17T14:14:49.380Z,5.80
2018-12-17T14:17:22.598Z,5.70
2018-12-17T14:22:52.163Z,5.60
2018-12-17T14:25:19.694Z,5.50
2018-12-17T14:27:47.229Z,5.40
2018-12-17T14:30:14.769Z,5.40
2018-12-17T14:32:42.242Z,5.40
2018-12-17T14:35:09.941Z,5.30
2018-12-17T14:37:39.357Z,5.30
2018-12-17T14:40:07.577Z,5.30
2018-12-17T14:42:35.038Z,5.30
2018-12-17T14:45:02.726Z,5.30
2018-12-17T14:47:30.390Z,5.20
2018-12-17T14:49:57.913Z,5.20
2018-12-17T14:52:25.934Z,5.20
2018-12-17T14:54:53.375Z,5.20
2018-12-17T14:57:20.856Z,5.20
2018-12-17T14:59:48.410Z,5.20
2018-12-17T15:02:15.858Z,5.20
2018-12-17T15:04:43.384Z,5.20
2018-12-17T15:07:11.246Z,5.10
2018-12-17T15:09:39.262Z,5.10
2018-12-17T15:12:06.732Z,5.10
2018-12-17T15:14:34.210Z,5.20
2018-12-17T15:17:04.608Z,5.10
2018-12-17T15:19:32.061Z,5.10
2018-12-17T15:21:59.499Z,5.10
2018-12-17T15:24:26.968Z,5.10
2018-12-17T15:26:54.463Z,5.10
2018-12-17T15:29:22.012Z,5.00
2018-12-17T15:31:49.605Z,5.00
2018-12-17T15:34:23.399Z,5.00
2018-12-17T15:36:50.870Z,5.00
2018-12-17T15:39:18.383Z,5.00
2018-12-17T15:41:46.128Z,4.90
2018-12-17T15:44:13.601Z,4.80
2018-12-17T15:46:41.337Z,4.70
2018-12-17T15:49:08.786Z,4.70
2018-12-17T15:51:36.639Z,4.60
2018-12-17T15:54:04.145Z,4.70
2018-12-17T15:56:32.135Z,4.60
2018-12-17T15:58:59.572Z,4.60
2018-12-17T16:01:27.342Z,4.50
2018-12-17T16:03:57.790Z,4.50
2018-12-17T16:06:25.246Z,4.40
2018-12-17T16:08:52.715Z,4.40
2018-12-17T16:11:20.201Z,4.40
2018-12-17T16:13:47.661Z,4.40
2018-12-17T16:16:16.071Z,4.40
2018-12-17T16:18:43.598Z,4.40
2018-12-17T16:21:11.130Z,4.40
2018-12-17T16:23:38.631Z,4.40
2018-12-17T16:26:06.145Z,4.30
2018-12-17T16:28:33.627Z,4.30
2018-12-17T16:31:01.263Z,4.30
2018-12-17T16:33:30.111Z,4.30
2018-12-17T16:35:58.093Z,4.30
2018-12-17T16:38:25.586Z,4.20
2018-12-17T16:40:53.087Z,4.20
2018-12-17T16:43:20.750Z,4.10
2018-12-17T16:45:49.129Z,4.20
2018-12-17T16:48:16.596Z,4.20
2018-12-17T16:50:44.088Z,4.20
2018-12-17T16:53:11.626Z,4.20
2018-12-17T16:55:39.073Z,4.10
2018-12-17T16:58:06.548Z,4.10
2018-12-17T17:00:34.026Z,4.10
2018-12-17T17:03:01.514Z,4.10
2018-12-17T17:05:32.862Z,4.10
2018-12-17T17:08:00.322Z,4.10
2018-12-17T17:10:27.790Z,4.10
2018-12-17T17:12:55.331Z,4.10
2018-12-17T17:15:22.802Z,4.10
2018-12-17T17:17:50.409Z,4.10
2018-12-17T17:20:22.337Z,4.10
2018-12-17T17:22:49.858Z,4.10
2018-12-17T17:25:17.387Z,4.10
2018-12-17T17:27:44.826Z,4.10
2018-12-17T17:30:12.359Z,4.10
2018-12-17T17:32:39.838Z,4.10
2018-12-17T17:35:07.407Z,4.10
2018-12-17T17:37:35.834Z,4.10
2018-12-17T17:40:03.763Z,4.20
2018-12-17T17:42:31.822Z,4.10
2018-12-17T17:44:59.273Z,4.20
2018-12-17T17:47:26.865Z,4.20
2018-12-17T17:49:55.039Z,4.20
2018-12-17T17:52:22.518Z,4.10
2018-12-17T17:54:49.962Z,4.20
2018-12-17T17:57:17.667Z,4.10
2018-12-17T17:59:45.160Z,4.20
2018-12-17T18:02:18.572Z,4.20
2018-12-17T18:04:46.083Z,4.20
2018-12-17T18:07:13.904Z,4.20
2018-12-17T18:09:41.379Z,4.20
2018-12-17T18:12:09.550Z,4.20
2018-12-17T18:14:37.010Z,4.20
2018-12-17T18:17:04.497Z,4.20
2018-12-17T18:19:31.947Z,4.20
2018-12-17T18:21:59.380Z,4.10
2018-12-17T18:24:26.874Z,4.10
2018-12-17T18:26:54.737Z,4.10
2018-12-17T18:29:23.014Z,4.00
2018-12-17T18:31:50.451Z,4.00
2018-12-17T18:34:18.047Z,3.90
2018-12-17T18:36:45.480Z,3.90
2018-12-17T18:39:13.179Z,3.80
2018-12-17T18:41:40.673Z,3.90
2018-12-17T18:44:08.110Z,3.90
2018-12-17T18:46:35.590Z,3.90
2018-12-17T18:49:03.073Z,3.90
2018-12-17T18:51:30.620Z,3.90
2018-12-17T18:53:58.170Z,3.90
2018-12-17T18:56:26.023Z,3.90
2018-12-17T18:58:53.481Z,3.80
2018-12-17T19:01:20.958Z,3.90
2018-12-17T19:03:48.439Z,3.90
2018-12-17T19:06:15.887Z,3.90
2018-12-17T19:08:43.354Z,3.90
2018-12-17T19:11:10.807Z,3.90
2018-12-17T19:13:38.466Z,3.90
2018-12-17T19:16:06.869Z,3.90
2018-12-17T19:18:34.349Z,3.90
2018-12-17T19:21:02.342Z,3.80
2018-12-17T19:23:29.844Z,3.80
2018-12-17T19:25:57.408Z,3.80
2018-12-17T19:28:24.970Z,3.70
2018-12-17T19:30:52.720Z,3.70
2018-12-17T19:33:20.170Z,3.70
2018-12-17T19:35:48.033Z,3.60
2018-12-17T19:38:15.566Z,3.60
2018-12-17T19:40:43.018Z,3.50
2018-12-17T19:43:10.623Z,3.40
2018-12-17T19:45:38.094Z,3.40
2018-12-17T19:48:05.554Z,3.40
2018-12-17T19:50:33.061Z,3.40
2018-12-17T19:53:01.360Z,3.40
2018-12-17T19:55:29.279Z,3.30
2018-12-17T19:57:56.718Z,3.30
2018-12-17T20:00:24.240Z,3.20
2018-12-17T20:02:51.983Z,3.10
2018-12-17T20:05:20.553Z,2.90
2018-12-17T20:07:48.002Z,2.80
2018-12-17T20:10:21.333Z,2.60
2018-12-17T20:12:48.808Z,2.60
2018-12-17T20:15:16.335Z,2.60
2018-12-17T20:17:44.085Z,2.60
2018-12-17T20:20:11.646Z,2.50
2018-12-17T20:22:39.497Z,2.50
2018-12-17T20:25:07.048Z,2.50
2018-12-17T20:27:34.850Z,2.50
2018-12-17T20:30:02.333Z,2.50
2018-12-17T20:32:30.059Z,2.60
2018-12-17T20:34:57.665Z,2.60
2018-12-17T20:37:25.111Z,2.70
2018-12-17T20:39:52.587Z,2.80
2018-12-17T20:42:20.104Z,2.90
2018-12-17T20:44:48.916Z,3.00
2018-12-17T20:47:16.370Z,3.10
2018-12-17T20:49:44.035Z,3.10
2018-12-17T20:52:11.533Z,3.10
2018-12-17T20:54:39.292Z,3.10
2018-12-17T20:57:06.811Z,3.10
2018-12-17T20:59:34.491Z,3.20
2018-12-17T21:02:02.339Z,3.30
2018-12-17T21:04:29.796Z,3.30
2018-12-17T21:06:57.325Z,3.40
2018-12-17T21:09:25.637Z,3.40
2018-12-17T21:11:53.116Z,3.50
2018-12-17T21:14:23.774Z,3.50
2018-12-17T21:16:51.466Z,3.50
2018-12-17T21:19:18.932Z,3.60
2018-12-17T21:21:46.417Z,3.60
2018-12-17T21:24:13.887Z,3.60
2018-12-17T21:26:41.386Z,3.60
2018-12-17T21:29:08.874Z,3.50
2018-12-17T21:31:36.329Z,3.60
2018-12-17T21:34:03.824Z,3.50
2018-12-17T21:36:31.546Z,3.50
2018-12-17T21:38:59.736Z,3.50
2018-12-17T21:41:27.265Z,3.40
2018-12-17T21:43:54.833Z,3.40
2018-12-17T21:46:22.390Z,3.40
2018-12-17T21:48:49.833Z,3.40
2018-12-17T21:51:17.377Z,3.30
2018-12-17T21:53:48.551Z,3.30
2018-12-17T21:56:16.046Z,3.20
2018-12-17T21:58:43.640Z,3.20
2018-12-17T22:01:11.358Z,3.20
2018-12-17T22:03:38.837Z,3.20
2018-12-17T22:06:06.334Z,3.20
2018-12-17T22:08:33.803Z,3.20
2018-12-17T22:11:01.289Z,3.30
2018-12-17T22:13:28.753Z,3.30
2018-12-17T22:15:57.153Z,3.40
2018-12-17T22:18:24.878Z,3.40
2018-12-17T22:20:52.346Z,3.50
2018-12-17T22:23:19.802Z,3.50
2018-12-17T22:25:51.126Z,3.60
2018-12-17T22:28:18.609Z,3.60
2018-12-17T22:30:46.485Z,3.60
2018-12-17T22:33:19.742Z,3.60
2018-12-17T22:35:43.920Z,3.60
2018-12-17T22:38:11.518Z,3.70
2018-12-17T22:40:39.054Z,3.70
2018-12-17T22:43:06.517Z,3.70
2018-12-17T22:45:34.280Z,3.70
2018-12-17T22:48:01.767Z,3.80
2018-12-17T22:50:29.239Z,3.80
2018-12-17T22:52:56.686Z,3.90
2018-12-17T22:55:28.604Z,3.90
2018-12-17T22:57:56.368Z,3.90
2018-12-17T23:00:23.878Z,3.90
2018-12-17T23:02:51.448Z,3.90
2018-12-17T23:05:18.950Z,3.90
2018-12-17T23:07:46.418Z,3.90
2018-12-17T23:10:26.382Z,4.00
2018-12-17T23:13:05.638Z,4.00
2018-12-17T23:15:45.285Z,4.00
2018-12-17T23:18:12.343Z,4.00
2018-12-17T23:20:42.064Z,4.00
2018-12-17T23:23:10.764Z,4.00
2018-12-17T23:25:38.229Z,4.00
2018-12-17T23:28:07.685Z,4.00
2018-12-17T23:30:35.306Z,4.00
2018-12-17T23:33:03.018Z,4.00
2018-12-17T23:35:30.461Z,4.00
2018-12-17T23:37:57.919Z,4.00
2018-12-17T23:40:31.553Z,3.90
2018-12-17T23:42:59.551Z,4.00
2018-12-17T23:45:27.066Z,4.00
2018-12-17T23:47:54.783Z,4.00
2018-12-17T23:50:22.470Z,4.00
2018-12-17T23:52:49.902Z,4.00
2018-12-17T23:55:17.383Z,4.00
2018-12-17T23:57:44.921Z,3.90
